Time;durP1;ratioP1;P1;durP2;ratioP2;P2;SDS_P1;SDS_P2;PMS_P1;PMS_P2;Temp;Humidity;BMP_temperature;BMP_pressure;BME280_temperature;BME280_humidity;BME280_pressure;Samples;Min_cycle;Max_cycle;Signal;HPM_P1;HPM_P2
2024/04/02 00:00:29;;;;;;;17.70;6.70;;;;;;;;;;7326879;19;20399;-44
2024/04/02 00:02:55;;;;;;;15.30;6.97;;;;;;;;;;7346697;19;20309;-41
2024/04/02 00:05:20;;;;;;;14.30;5.00;;;;;;;;;;7348612;19;20297;-47
2024/04/02 00:07:45;;;;;;;15.93;6.83;;;;;;;;;;7326758;19;20857;-42
2024/04/02 00:10:11;;;;;;;18.00;6.50;;;;;;;;;;7348537;19;20328;-43
2024/04/02 00:12:36;;;;;;;16.27;6.70;;;;;;;;;;7325676;19;20864;-41
2024/04/02 00:15:05;;;;;;;16.27;5.80;;;;;;;;;;7349107;19;20413;-44
2024/04/02 00:17:31;;;;;;;13.07;5.72;;;;;;;;;;7326998;19;20328;-40
2024/04/02 00:19:56;;;;;;;15.37;5.70;;;;;;;;;;7349293;19;20312;-41
2024/04/02 00:22:21;;;;;;;15.05;6.07;;;;;;;;;;7347398;19;20427;-42
2024/04/02 00:24:47;;;;;;;16.87;5.80;;;;;;;;;;7327152;19;20389;-41
2024/04/02 00:27:12;;;;;;;12.90;5.43;;;;;;;;;;7348229;19;20304;-43
2024/04/02 00:29:38;;;;;;;12.57;5.27;;;;;;;;;;7326100;19;20328;-44
2024/04/02 00:32:03;;;;;;;14.33;5.20;;;;;;;;;;7347922;19;20396;-44
2024/04/02 00:34:29;;;;;;;12.65;4.80;;;;;;;;;;7326591;19;20333;-42
2024/04/02 00:36:54;;;;;;;12.03;5.50;;;;;;;;;;7348554;19;20300;-43
2024/04/02 00:39:19;;;;;;;12.07;4.63;;;;;;;;;;7348695;19;20649;-41
2024/04/02 00:41:45;;;;;;;11.07;4.70;;;;;;;;;;7326639;19;20331;-44
2024/04/02 00:44:10;;;;;;;15.30;5.07;;;;;;;;;;7347852;19;20325;-44
2024/04/02 00:46:35;;;;;;;16.63;5.33;;;;;;;;;;7325916;19;20332;-42
2024/04/02 00:49:01;;;;;;;14.27;4.97;;;;;;;;;;7346515;19;20824;-42
2024/04/02 00:51:27;;;;;;;10.90;4.90;;;;;;;;;;7339136;19;20393;-40
2024/04/02 00:53:52;;;;;;;8.40;4.80;;;;;;;;;;7336853;19;20819;-42
2024/04/02 00:56:18;;;;;;;11.40;4.90;;;;;;;;;;7347805;19;20304;-41
2024/04/02 00:58:43;;;;;;;13.10;5.70;;;;;;;;;;7325763;19;20748;-43
2024/04/02 01:01:09;;;;;;;16.90;4.87;;;;;;;;;;7347471;19;20296;-44
2024/04/02 01:03:34;;;;;;;11.70;4.63;;;;;;;;;;7324214;19;20376;-45
2024/04/02 01:06:00;;;;;;;11.23;4.40;;;;;;;;;;7347742;19;20297;-41
2024/04/02 01:08:26;;;;;;;10.80;4.30;;;;;;;;;;7345744;19;20382;-41
2024/04/02 01:10:52;;;;;;;14.20;4.60;;;;;;;;;;7326208;19;20374;-41
2024/04/02 01:13:18;;;;;;;7.47;4.37;;;;;;;;;;7345729;19;20292;-41
2024/04/02 01:15:44;;;;;;;9.95;4.72;;;;;;;;;;7325511;19;20327;-41
2024/04/02 01:18:09;;;;;;;9.83;4.00;;;;;;;;;;7347178;19;20303;-42
2024/04/02 01:20:35;;;;;;;11.30;4.70;;;;;;;;;;7324632;19;20876;-43
2024/04/02 01:23:00;;;;;;;14.95;4.70;;;;;;;;;;7345306;19;20887;-42
2024/04/02 01:25:26;;;;;;;9.80;3.70;;;;;;;;;;7347309;19;20841;-41
2024/04/02 01:27:51;;;;;;;12.03;4.70;;;;;;;;;;7326502;19;20321;-45
2024/04/02 01:30:17;;;;;;;11.00;3.67;;;;;;;;;;7346054;19;20682;-42
2024/04/02 01:32:42;;;;;;;15.20;4.30;;;;;;;;;;7316113;19;20329;-42
2024/04/02 01:35:08;;;;;;;6.40;3.50;;;;;;;;;;7346809;19;20353;-43
2024/04/02 01:37:33;;;;;;;17.20;4.70;;;;;;;;;;7321251;19;20312;-46
2024/04/02 01:39:58;;;;;;;12.90;4.20;;;;;;;;;;7346405;19;20366;-45
2024/04/02 01:42:24;;;;;;;14.00;5.50;;;;;;;;;;7346076;19;20300;-43
2024/04/02 01:44:51;;;;;;;9.20;4.30;;;;;;;;;;7325038;19;20309;-43
2024/04/02 01:47:16;;;;;;;11.35;4.57;;;;;;;;;;7345326;19;20304;-43
2024/04/02 01:49:42;;;;;;;11.02;4.75;;;;;;;;;;7322067;19;20332;-43
2024/04/02 01:52:07;;;;;;;10.17;4.90;;;;;;;;;;7344391;19;20336;-44
2024/04/02 01:54:33;;;;;;;11.27;4.70;;;;;;;;;;7323856;19;20407;-42
2024/04/02 01:56:58;;;;;;;10.88;4.70;;;;;;;;;;7346217;19;20293;-44
2024/04/02 01:59:24;;;;;;;12.27;4.90;;;;;;;;;;7345753;19;20685;-44
2024/04/02 02:01:50;;;;;;;10.85;4.35;;;;;;;;;;7323131;19;20308;-43
2024/04/02 02:04:15;;;;;;;9.48;4.22;;;;;;;;;;7345692;19;20297;-42
2024/04/02 02:06:41;;;;;;;12.20;5.30;;;;;;;;;;7324091;19;20860;-45
2024/04/02 02:09:06;;;;;;;9.80;4.60;;;;;;;;;;7345620;19;20415;-42
2024/04/02 02:11:31;;;;;;;13.07;4.75;;;;;;;;;;7321896;19;20365;-47
2024/04/02 02:13:59;;;;;;;11.77;4.17;;;;;;;;;;7345256;19;20296;-43
2024/04/02 02:16:24;;;;;;;11.43;4.65;;;;;;;;;;7345642;19;20300;-43
2024/04/02 02:18:50;;;;;;;39.37;15.20;;;;;;;;;;7323172;19;20372;-44
2024/04/02 02:21:15;;;;;;;9.40;3.90;;;;;;;;;;7344506;19;20376;-43
2024/04/02 02:23:45;;;;;;;11.27;4.90;;;;;;;;;;7322923;19;20935;-44
2024/04/02 02:26:11;;;;;;;9.43;3.90;;;;;;;;;;7345004;19;20721;-44
2024/04/02 02:28:36;;;;;;;8.50;3.70;;;;;;;;;;7322742;19;20472;-43
2024/04/02 02:31:01;;;;;;;11.53;4.30;;;;;;;;;;7344529;19;20296;-44
2024/04/02 02:33:27;;;;;;;7.82;3.70;;;;;;;;;;7337184;19;20376;-42
2024/04/02 02:35:53;;;;;;;10.47;3.70;;;;;;;;;;7333870;19;20297;-46
2024/04/02 02:38:18;;;;;;;8.90;4.13;;;;;;;;;;7344797;19;20330;-44
2024/04/02 02:40:44;;;;;;;7.40;3.37;;;;;;;;;;7322730;19;20679;-45
2024/04/02 02:43:09;;;;;;;8.13;3.60;;;;;;;;;;7344746;19;20384;-48
2024/04/02 02:45:34;;;;;;;7.28;3.78;;;;;;;;;;7322752;19;20329;-43
2024/04/02 02:48:00;;;;;;;9.60;3.70;;;;;;;;;;7342823;19;20384;-45
2024/04/02 02:50:25;;;;;;;8.65;3.83;;;;;;;;;;7344021;19;20332;-43
2024/04/02 02:52:51;;;;;;;9.00;3.60;;;;;;;;;;7321684;19;20338;-42
2024/04/02 02:55:16;;;;;;;9.03;3.90;;;;;;;;;;7344366;19;20352;-43
2024/04/02 02:57:42;;;;;;;7.17;3.70;;;;;;;;;;7321980;19;20780;-41
2024/04/02 03:00:08;;;;;;;8.88;3.50;;;;;;;;;;7344509;19;20378;-44
2024/04/02 03:02:34;;;;;;;7.60;3.77;;;;;;;;;;7320933;19;20928;-43
2024/04/02 03:05:00;;;;;;;6.43;3.33;;;;;;;;;;7344511;19;20296;-43
2024/04/02 03:07:25;;;;;;;11.60;4.13;;;;;;;;;;7344161;19;20307;-42
2024/04/02 03:09:51;;;;;;;10.07;4.13;;;;;;;;;;7321846;19;20297;-43
2024/04/02 03:12:16;;;;;;;10.30;4.10;;;;;;;;;;7342932;19;20307;-42
2024/04/02 03:14:42;;;;;;;8.67;3.93;;;;;;;;;;7322026;19;20321;-42
2024/04/02 03:17:07;;;;;;;8.90;4.10;;;;;;;;;;7343753;19;20335;-45
2024/04/02 03:19:32;;;;;;;8.75;4.40;;;;;;;;;;7321110;19;20865;-44
2024/04/02 03:21:58;;;;;;;11.13;5.17;;;;;;;;;;7342339;19;20297;-43
2024/04/02 03:24:23;;;;;;;9.27;4.60;;;;;;;;;;7343716;19;20395;-45
2024/04/02 03:26:48;;;;;;;11.13;4.90;;;;;;;;;;7321441;19;20293;-46
2024/04/02 03:29:14;;;;;;;13.17;5.60;;;;;;;;;;7343422;19;20667;-43
2024/04/02 03:31:39;;;;;;;7.43;4.80;;;;;;;;;;7318022;19;21407;-43
2024/04/02 03:34:05;;;;;;;11.73;5.10;;;;;;;;;;7342832;19;20297;-45
2024/04/02 03:36:30;;;;;;;10.40;4.20;;;;;;;;;;7320775;19;20325;-42
2024/04/02 03:38:56;;;;;;;8.80;4.67;;;;;;;;;;7342854;19;20664;-46
2024/04/02 03:41:21;;;;;;;11.80;5.30;;;;;;;;;;7342800;19;20297;-45
2024/04/02 03:43:48;;;;;;;9.77;5.00;;;;;;;;;;7320864;19;20290;-43
2024/04/02 03:46:13;;;;;;;15.30;5.55;;;;;;;;;;7343459;19;20840;-45
2024/04/02 03:48:39;;;;;;;11.90;5.00;;;;;;;;;;7319424;19;20380;-46
2024/04/02 03:51:04;;;;;;;11.13;5.67;;;;;;;;;;7342068;19;20670;-44
2024/04/02 03:53:30;;;;;;;10.77;6.10;;;;;;;;;;7319615;19;20357;-44
2024/04/02 03:55:56;;;;;;;13.02;6.10;;;;;;;;;;7342310;19;20293;-46
2024/04/02 03:58:21;;;;;;;13.18;6.20;;;;;;;;;;7342643;19;20315;-43
2024/04/02 04:00:47;;;;;;;15.70;6.80;;;;;;;;;;7320886;19;20729;-42
2024/04/02 04:03:14;;;;;;;11.40;6.30;;;;;;;;;;7340745;19;20304;-45
2024/04/02 04:05:39;;;;;;;13.65;6.93;;;;;;;;;;7319580;19;20343;-43
2024/04/02 04:08:05;;;;;;;19.08;7.32;;;;;;;;;;7342305;19;20388;-46
2024/04/02 04:10:34;;;;;;;16.17;7.53;;;;;;;;;;7319749;19;20340;-42
2024/04/02 04:12:59;;;;;;;13.38;7.03;;;;;;;;;;7341660;19;20313;-45
2024/04/02 04:15:24;;;;;;;16.20;6.70;;;;;;;;;;7342495;19;20307;-43
2024/04/02 04:17:50;;;;;;;14.57;7.43;;;;;;;;;;7320657;19;20715;-51
2024/04/02 04:20:15;;;;;;;14.07;7.80;;;;;;;;;;7341730;19;20384;-45
2024/04/02 04:22:41;;;;;;;14.43;7.05;;;;;;;;;;7318687;19;20320;-48
2024/04/02 04:25:08;;;;;;;15.17;6.90;;;;;;;;;;7341827;19;20296;-44
2024/04/02 04:27:37;;;;;;;13.60;7.60;;;;;;;;;;7320335;19;20339;-43
2024/04/02 04:30:05;;;;;;;13.68;7.55;;;;;;;;;;7342269;19;20331;-47
2024/04/02 04:32:31;;;;;;;16.10;7.90;;;;;;;;;;7316945;19;20651;-44
2024/04/02 04:34:57;;;;;;;12.30;6.93;;;;;;;;;;7341712;19;20299;-43
2024/04/02 04:37:23;;;;;;;15.20;7.40;;;;;;;;;;7341590;19;20304;-43
2024/04/02 04:39:48;;;;;;;18.60;7.45;;;;;;;;;;7319111;19;20321;-43
2024/04/02 04:42:13;;;;;;;15.50;7.80;;;;;;;;;;7340244;19;20304;-45
2024/04/02 04:44:42;;;;;;;18.93;7.40;;;;;;;;;;7326394;19;20328;-44
2024/04/02 04:47:07;;;;;;;13.77;7.30;;;;;;;;;;7347945;19;20316;-44
2024/04/02 04:49:32;;;;;;;12.37;6.70;;;;;;;;;;7324109;19;20329;-45
2024/04/02 04:51:58;;;;;;;10.30;5.60;;;;;;;;;;7346299;19;20299;-43
2024/04/02 04:54:23;;;;;;;11.43;6.37;;;;;;;;;;7347824;19;20859;-44
2024/04/02 04:56:48;;;;;;;15.35;7.22;;;;;;;;;;7325747;19;20381;-43
2024/04/02 04:59:14;;;;;;;21.67;7.37;;;;;;;;;;7347854;19;20307;-46
2024/04/02 05:01:39;;;;;;;14.40;6.90;;;;;;;;;;7325540;19;20362;-46
2024/04/02 05:04:05;;;;;;;13.73;6.78;;;;;;;;;;7347092;19;20380;-43
2024/04/02 05:06:32;;;;;;;14.30;7.10;;;;;;;;;;7323143;19;20407;-45
2024/04/02 05:08:58;;;;;;;14.10;6.43;;;;;;;;;;7345634;19;20316;-46
2024/04/02 05:11:23;;;;;;;13.90;6.47;;;;;;;;;;7346173;19;20330;-45
2024/04/02 05:13:48;;;;;;;13.53;7.30;;;;;;;;;;7324425;19;20892;-46
2024/04/02 05:16:14;;;;;;;13.77;6.80;;;;;;;;;;7346269;19;20373;-49
2024/04/02 05:18:39;;;;;;;34.37;13.53;;;;;;;;;;7326220;19;20977;-44
2024/04/02 05:21:05;;;;;;;34.70;15.33;;;;;;;;;;7347452;19;20317;-43
2024/04/02 05:23:30;;;;;;;29.27;11.90;;;;;;;;;;7323739;19;20379;-43
2024/04/02 05:25:59;;;;;;;57.50;23.50;;;;;;;;;;7345231;19;21195;-44
2024/04/02 05:28:24;;;;;;;23.40;11.70;;;;;;;;;;7344907;19;20701;-43
2024/04/02 05:30:49;;;;;;;19.80;10.18;;;;;;;;;;7326134;19;20339;-44
2024/04/02 05:33:15;;;;;;;28.80;12.87;;;;;;;;;;7345795;19;20300;-43
2024/04/02 05:35:40;;;;;;;27.75;12.50;;;;;;;;;;7326375;19;20336;-43
2024/04/02 05:38:06;;;;;;;36.57;15.93;;;;;;;;;;7346972;19;20377;-42
2024/04/02 05:40:32;;;;;;;27.67;11.77;;;;;;;;;;7324030;19;20453;-42
2024/04/02 05:42:58;;;;;;;47.20;18.05;;;;;;;;;;7345475;19;20351;-43
2024/04/02 05:45:24;;;;;;;21.80;9.90;;;;;;;;;;7346766;19;20349;-43
2024/04/02 05:47:49;;;;;;;17.33;8.25;;;;;;;;;;7323590;19;20316;-44
2024/04/02 05:50:15;;;;;;;16.47;7.80;;;;;;;;;;7345377;19;20344;-44
2024/04/02 05:52:41;;;;;;;15.23;7.95;;;;;;;;;;7321040;19;20317;-43
2024/04/02 05:55:06;;;;;;;17.07;7.80;;;;;;;;;;7344929;19;20313;-43
2024/04/02 05:57:32;;;;;;;17.70;9.30;;;;;;;;;;7322821;19;20334;-41
2024/04/02 05:59:57;;;;;;;18.10;7.63;;;;;;;;;;7344027;19;20317;-43
2024/04/02 06:02:23;;;;;;;15.63;7.93;;;;;;;;;;7344117;19;20297;-44
2024/04/02 06:04:48;;;;;;;20.30;9.10;;;;;;;;;;7323542;19;20311;-43
2024/04/02 06:07:13;;;;;;;19.15;9.00;;;;;;;;;;7344469;19;20380;-46
2024/04/02 06:09:40;;;;;;;20.23;9.63;;;;;;;;;;7323625;19;20328;-43
2024/04/02 06:12:05;;;;;;;19.02;9.50;;;;;;;;;;7344072;19;20296;-43
2024/04/02 06:14:32;;;;;;;16.50;7.90;;;;;;;;;;7323508;19;20371;-42
2024/04/02 06:16:57;;;;;;;19.00;8.25;;;;;;;;;;7346143;19;20296;-44
2024/04/02 06:19:23;;;;;;;22.80;9.60;;;;;;;;;;7346646;19;20707;-43
2024/04/02 06:21:48;;;;;;;23.45;9.50;;;;;;;;;;7322565;19;20384;-43
2024/04/02 06:24:13;;;;;;;19.40;9.90;;;;;;;;;;7342636;19;20324;-44
2024/04/02 06:26:39;;;;;;;18.33;9.20;;;;;;;;;;7322618;19;20376;-45
2024/04/02 06:29:04;;;;;;;18.93;8.50;;;;;;;;;;7345120;19;20345;-43
2024/04/02 06:31:29;;;;;;;20.63;10.37;;;;;;;;;;7320945;19;20960;-45
2024/04/02 06:33:56;;;;;;;18.67;9.48;;;;;;;;;;7343994;19;20301;-45
2024/04/02 06:36:21;;;;;;;17.77;10.40;;;;;;;;;;7344681;19;20308;-45
2024/04/02 06:38:47;;;;;;;43.53;19.90;;;;;;;;;;7323521;19;20373;-43
2024/04/02 06:41:12;;;;;;;67.38;29.52;;;;;;;;;;7344813;19;20879;-46
2024/04/02 06:43:38;;;;;;;24.00;9.67;;;;;;;;;;7322003;19;20324;-46
2024/04/02 06:46:03;;;;;;;20.57;10.80;;;;;;;;;;7344136;19;20442;-43
2024/04/02 06:48:28;;;;;;;15.13;8.10;;;;;;;;;;7320987;19;20301;-43
2024/04/02 06:51:01;;;;;;;19.70;10.23;;;;;;;;;;7343772;19;20824;-44
2024/04/02 06:53:27;;;;;;;17.52;8.50;;;;;;;;;;7343136;19;20305;-46
2024/04/02 06:55:52;;;;;;;17.88;9.82;;;;;;;;;;7323878;19;20304;-45
2024/04/02 06:58:18;;;;;;;27.88;13.60;;;;;;;;;;7344288;19;20304;-44
2024/04/02 07:00:44;;;;;;;27.20;12.75;;;;;;;;;;7319646;19;20385;-43
2024/04/02 07:03:14;;;;;;;20.75;11.18;;;;;;;;;;7342345;19;20328;-45
2024/04/02 07:05:40;;;;;;;21.98;10.48;;;;;;;;;;7318695;19;20340;-49
2024/04/02 07:08:05;;;;;;;21.40;10.07;;;;;;;;;;7340965;19;21041;-44
2024/04/02 07:10:31;;;;;;;19.80;10.27;;;;;;;;;;7319708;19;20986;-44
2024/04/02 07:12:56;;;;;;;21.80;11.70;;;;;;;;;;7343249;19;20325;-42
2024/04/02 07:15:21;;;;;;;20.20;9.07;;;;;;;;;;7339565;19;20403;-43
2024/04/02 07:17:47;;;;;;;17.90;9.20;;;;;;;;;;7322766;19;20290;-43
2024/04/02 07:20:12;;;;;;;24.90;9.17;;;;;;;;;;7340806;19;20691;-46
2024/04/02 07:22:38;;;;;;;19.92;9.07;;;;;;;;;;7314454;19;20392;-43
2024/04/02 07:25:04;;;;;;;17.00;8.95;;;;;;;;;;7341791;19;20304;-45
2024/04/02 07:27:29;;;;;;;15.10;8.95;;;;;;;;;;7320105;19;20392;-44
2024/04/02 07:29:55;;;;;;;16.13;8.40;;;;;;;;;;7340697;19;20868;-42
2024/04/02 07:32:20;;;;;;;23.70;11.33;;;;;;;;;;7342981;19;20331;-48
2024/04/02 07:34:46;;;;;;;15.70;8.77;;;;;;;;;;7321721;19;22120;-45
2024/04/02 07:37:11;;;;;;;20.20;8.97;;;;;;;;;;7342261;19;20297;-45
2024/04/02 07:39:36;;;;;;;17.03;8.50;;;;;;;;;;7320245;19;20338;-46
2024/04/02 07:42:02;;;;;;;22.23;10.67;;;;;;;;;;7340957;19;20322;-45
2024/04/02 07:44:27;;;;;;;14.50;7.93;;;;;;;;;;7331539;19;20347;-46
2024/04/02 07:46:53;;;;;;;20.45;9.85;;;;;;;;;;7330499;19;20292;-46
2024/04/02 07:49:18;;;;;;;17.40;9.60;;;;;;;;;;7338451;19;20304;-44
2024/04/02 07:51:43;;;;;;;22.43;11.40;;;;;;;;;;7319908;19;20350;-47
2024/04/02 07:54:09;;;;;;;14.40;7.63;;;;;;;;;;7342043;19;20840;-48
2024/04/02 07:56:34;;;;;;;19.43;9.23;;;;;;;;;;7320398;19;20325;-44
2024/04/02 07:59:00;;;;;;;16.60;8.82;;;;;;;;;;7342104;19;20730;-46
2024/04/02 08:01:27;;;;;;;17.23;9.33;;;;;;;;;;7341733;19;20312;-46
2024/04/02 08:03:52;;;;;;;15.63;8.27;;;;;;;;;;7320586;19;20308;-43
2024/04/02 08:06:18;;;;;;;20.93;9.07;;;;;;;;;;7342368;19;20301;-44
2024/04/02 08:08:43;;;;;;;18.70;9.90;;;;;;;;;;7319968;19;20403;-49
2024/04/02 08:11:08;;;;;;;18.40;9.63;;;;;;;;;;7341443;19;20974;-47
2024/04/02 08:13:34;;;;;;;18.57;9.37;;;;;;;;;;7318888;19;20332;-43
2024/04/02 08:16:00;;;;;;;15.90;8.38;;;;;;;;;;7341944;19;20296;-48
2024/04/02 08:18:25;;;;;;;15.73;8.27;;;;;;;;;;7344552;19;20827;-44
2024/04/02 08:20:50;;;;;;;15.33;6.97;;;;;;;;;;7326450;19;20305;-45
2024/04/02 08:23:16;;;;;;;13.95;8.77;;;;;;;;;;7348004;19;20308;-48
2024/04/02 08:25:42;;;;;;;15.87;9.03;;;;;;;;;;7326382;19;20317;-48
2024/04/02 08:28:08;;;;;;;17.08;7.85;;;;;;;;;;7347884;19;20316;-44
2024/04/02 08:30:33;;;;;;;14.10;7.93;;;;;;;;;;7325835;19;20897;-48
2024/04/02 08:32:58;;;;;;;15.80;7.33;;;;;;;;;;7346483;19;20321;-46
2024/04/02 08:35:24;;;;;;;14.55;8.00;;;;;;;;;;7348009;19;20301;-43
2024/04/02 08:37:49;;;;;;;17.43;9.93;;;;;;;;;;7326239;19;20292;-45
2024/04/02 08:40:15;;;;;;;15.82;8.02;;;;;;;;;;7348001;19;20348;-51
2024/04/02 08:42:40;;;;;;;16.83;10.45;;;;;;;;;;7325555;19;20321;-47
2024/04/02 08:45:06;;;;;;;17.25;8.20;;;;;;;;;;7347820;19;20297;-48
2024/04/02 08:47:34;;;;;;;25.73;10.57;;;;;;;;;;7323874;19;20331;-46
2024/04/02 08:50:00;;;;;;;14.32;7.20;;;;;;;;;;7346709;19;20292;-46
2024/04/02 08:52:26;;;;;;;16.40;8.80;;;;;;;;;;7346852;19;20297;-45
2024/04/02 08:54:51;;;;;;;13.77;9.32;;;;;;;;;;7325327;19;20326;-45
2024/04/02 08:57:18;;;;;;;14.23;7.03;;;;;;;;;;7347123;19;20320;-44
2024/04/02 08:59:44;;;;;;;19.17;9.05;;;;;;;;;;7325738;19;20368;-45
2024/04/02 09:02:10;;;;;;;18.50;8.33;;;;;;;;;;7346366;19;20868;-43
2024/04/02 09:04:35;;;;;;;16.35;7.70;;;;;;;;;;7325864;19;20356;-45
2024/04/02 09:07:02;;;;;;;11.57;5.90;;;;;;;;;;7347033;19;21296;-43
2024/04/02 09:09:27;;;;;;;12.23;7.40;;;;;;;;;;7341587;19;20321;-42
2024/04/02 09:11:53;;;;;;;12.63;8.17;;;;;;;;;;7334842;19;20288;-47
2024/04/02 09:14:19;;;;;;;15.40;7.30;;;;;;;;;;7346956;19;20312;-46
2024/04/02 09:16:44;;;;;;;17.58;7.88;;;;;;;;;;7324996;19;20343;-48
2024/04/02 09:19:09;;;;;;;16.53;8.03;;;;;;;;;;7343478;19;20399;-44
2024/04/02 09:21:35;;;;;;;24.83;11.83;;;;;;;;;;7320103;19;20336;-45
2024/04/02 09:24:00;;;;;;;24.67;10.93;;;;;;;;;;7345869;19;20384;-46
2024/04/02 09:26:26;;;;;;;16.97;9.60;;;;;;;;;;7345715;19;20317;-46
2024/04/02 09:28:51;;;;;;;29.07;14.33;;;;;;;;;;7322732;19;20308;-43
2024/04/02 09:31:16;;;;;;;19.20;9.75;;;;;;;;;;7341413;19;20769;-46
2024/04/02 09:33:46;;;;;;;23.90;12.63;;;;;;;;;;7323584;19;20412;-42
2024/04/02 09:36:23;;;;;;;18.40;10.10;;;;;;;;;;7344590;19;20305;-45
2024/04/02 09:38:49;;;;;;;17.90;7.88;;;;;;;;;;7324841;19;20317;-44
2024/04/02 09:41:15;;;;;;;18.02;9.00;;;;;;;;;;7344967;19;20308;-48
2024/04/02 09:43:41;;;;;;;30.27;13.80;;;;;;;;;;7323071;19;20457;-46
2024/04/02 09:46:07;;;;;;;23.67;12.30;;;;;;;;;;7345706;19;20708;-46
2024/04/02 09:48:34;;;;;;;17.73;8.18;;;;;;;;;;7320609;19;20323;-45
2024/04/02 09:50:59;;;;;;;18.98;9.75;;;;;;;;;;7346980;19;20311;-42
2024/04/02 09:53:26;;;;;;;15.70;8.27;;;;;;;;;;7338464;19;20873;-48
2024/04/02 09:55:52;;;;;;;15.93;7.93;;;;;;;;;;7319719;19;20313;-46
2024/04/02 09:58:18;;;;;;;17.60;8.27;;;;;;;;;;7333977;19;20847;-44
2024/04/02 10:00:47;;;;;;;11.05;6.53;;;;;;;;;;7323060;19;20320;-45
2024/04/02 10:03:13;;;;;;;17.33;8.95;;;;;;;;;;7341754;19;20325;-44
2024/04/02 10:05:39;;;;;;;17.92;8.40;;;;;;;;;;7320988;19;20321;-46
2024/04/02 10:08:06;;;;;;;28.13;13.27;;;;;;;;;;7345180;19;20315;-45
2024/04/02 10:10:36;;;;;;;26.23;13.07;;;;;;;;;;7322442;19;20357;-43
2024/04/02 10:13:06;;;;;;;40.83;19.10;;;;;;;;;;7344338;19;20312;-44
2024/04/02 10:15:32;;;;;;;30.67;14.48;;;;;;;;;;7322581;19;20300;-44
2024/04/02 10:17:58;;;;;;;25.60;11.40;;;;;;;;;;7342036;19;20339;-45
2024/04/02 10:20:27;;;;;;;15.40;7.55;;;;;;;;;;7341994;19;20339;-43
2024/04/02 10:22:53;;;;;;;13.57;7.17;;;;;;;;;;7322222;19;20305;-44
2024/04/02 10:25:18;;;;;;;21.00;9.67;;;;;;;;;;7343873;19;20686;-45
2024/04/02 10:27:44;;;;;;;14.97;7.07;;;;;;;;;;7322323;19;20320;-46
2024/04/02 10:30:16;;;;;;;25.63;11.00;;;;;;;;;;7343555;19;20301;-46
2024/04/02 10:32:42;;;;;;;28.00;13.02;;;;;;;;;;7321360;19;20313;-47
2024/04/02 10:35:17;;;;;;;18.13;8.15;;;;;;;;;;7343937;19;20841;-45
2024/04/02 10:37:42;;;;;;;27.95;12.85;;;;;;;;;;7322296;19;20344;-43
2024/04/02 10:40:07;;;;;;;23.00;10.80;;;;;;;;;;7336311;19;20906;-47
2024/04/02 10:42:33;;;;;;;16.07;7.60;;;;;;;;;;7314356;19;20321;-43
2024/04/02 10:44:59;;;;;;;7.22;3.80;;;;;;;;;;7340262;19;20300;-46
2024/04/02 10:47:25;;;;;;;14.27;3.90;;;;;;;;;;7339899;19;20297;-47
2024/04/02 10:49:52;;;;;;;8.02;3.75;;;;;;;;;;7320167;19;20325;-43
2024/04/02 10:52:18;;;;;;;10.07;3.78;;;;;;;;;;7342165;19;20670;-44
2024/04/02 10:54:43;;;;;;;9.30;3.70;;;;;;;;;;7321856;19;20404;-46
2024/04/02 10:57:08;;;;;;;8.50;3.10;;;;;;;;;;7343105;19;20289;-46
2024/04/02 10:59:36;;;;;;;9.60;3.50;;;;;;;;;;7321512;19;22139;-47
2024/04/02 11:02:14;;;;;;;7.63;3.00;;;;;;;;;;7342781;19;20285;-45
2024/04/02 11:04:40;;;;;;;8.93;3.53;;;;;;;;;;7322644;19;20332;-45
2024/04/02 11:07:09;;;;;;;7.90;3.27;;;;;;;;;;7343189;19;20313;-47
2024/04/02 11:09:34;;;;;;;6.10;3.30;;;;;;;;;;7321387;19;20308;-47
2024/04/02 11:11:59;;;;;;;7.97;3.30;;;;;;;;;;7342091;19;20309;-46
2024/04/02 11:14:27;;;;;;;5.93;2.50;;;;;;;;;;7343460;19;20380;-44
2024/04/02 11:16:52;;;;;;;4.97;2.72;;;;;;;;;;7322728;19;20300;-46
2024/04/02 11:19:18;;;;;;;7.13;3.10;;;;;;;;;;7342529;19;20301;-44
2024/04/02 11:21:43;;;;;;;6.43;2.70;;;;;;;;;;7318474;19;20759;-44
2024/04/02 11:27:02;;;;;;;6.20;2.60;;;;;;;;;;7323429;19;20662;-44
2024/04/02 11:29:27;;;;;;;6.90;2.50;;;;;;;;;;7335459;19;20380;-44
2024/04/02 11:31:53;;;;;;;7.20;2.80;;;;;;;;;;7330531;19;20295;-44
2024/04/02 11:34:19;;;;;;;8.30;2.50;;;;;;;;;;7342715;19;20702;-43
2024/04/02 11:36:44;;;;;;;8.07;2.60;;;;;;;;;;7321764;19;20868;-48
2024/04/02 11:39:10;;;;;;;5.13;1.80;;;;;;;;;;7343744;19;20317;-46
2024/04/02 11:41:38;;;;;;;5.10;1.70;;;;;;;;;;7320685;19;20724;-45
2024/04/02 11:44:03;;;;;;;4.15;2.10;;;;;;;;;;7341458;19;20308;-47
2024/04/02 11:46:29;;;;;;;5.13;2.15;;;;;;;;;;7320285;19;20859;-45
2024/04/02 11:48:54;;;;;;;6.30;2.33;;;;;;;;;;7339805;19;20687;-47
2024/04/02 11:51:20;;;;;;;7.47;2.60;;;;;;;;;;7343783;19;20904;-44
2024/04/02 11:53:45;;;;;;;8.10;2.40;;;;;;;;;;7318179;19;20371;-48
2024/04/02 11:56:10;;;;;;;4.88;2.70;;;;;;;;;;7336168;19;20412;-46
2024/04/02 12:01:20;;;;;;;7.63;3.00;;;;;;;;;;7341095;19;20953;-41
2024/04/02 12:03:45;;;;;;;8.13;3.10;;;;;;;;;;7319051;19;20355;-43
2024/04/02 12:06:11;;;;;;;6.20;2.90;;;;;;;;;;7341182;19;20300;-47
2024/04/02 12:08:36;;;;;;;8.60;3.50;;;;;;;;;;7320274;19;20399;-42
2024/04/02 12:11:02;;;;;;;5.83;2.67;;;;;;;;;;7340604;19;20293;-40
2024/04/02 12:13:28;;;;;;;7.90;3.40;;;;;;;;;;7334671;19;20326;-43
2024/04/02 12:15:55;;;;;;;8.88;3.05;;;;;;;;;;7333392;19;20292;-44
2024/04/02 12:18:21;;;;;;;7.63;3.30;;;;;;;;;;7341138;19;20301;-41
2024/04/02 12:20:47;;;;;;;9.23;3.47;;;;;;;;;;7318858;19;24961;-42
2024/04/02 12:23:12;;;;;;;5.63;3.17;;;;;;;;;;7339773;19;20307;-42
2024/04/02 12:25:37;;;;;;;6.88;3.08;;;;;;;;;;7318600;19;20328;-49
2024/04/02 12:28:03;;;;;;;7.67;3.40;;;;;;;;;;7341076;19;20304;-42
2024/04/02 12:30:28;;;;;;;7.75;3.08;;;;;;;;;;7318708;19;20307;-42
2024/04/02 12:32:54;;;;;;;6.60;3.20;;;;;;;;;;7339084;19;20320;-43
2024/04/02 12:35:19;;;;;;;5.53;2.30;;;;;;;;;;7340867;19;20404;-46
2024/04/02 12:37:44;;;;;;;4.00;2.10;;;;;;;;;;7318866;19;20356;-41
2024/04/02 12:40:11;;;;;;;4.10;2.30;;;;;;;;;;7340327;19;20392;-43
2024/04/02 12:42:36;;;;;;;5.68;2.90;;;;;;;;;;7317601;19;20348;-43
2024/04/02 12:45:03;;;;;;;6.30;2.42;;;;;;;;;;7338561;19;20681;-43
2024/04/02 12:47:29;;;;;;;5.82;2.70;;;;;;;;;;7314186;19;20837;-43
2024/04/02 12:49:54;;;;;;;6.15;2.70;;;;;;;;;;7339397;19;20297;-42
2024/04/02 12:52:20;;;;;;;4.70;2.60;;;;;;;;;;7336513;19;20321;-42
2024/04/02 12:54:45;;;;;;;6.37;2.73;;;;;;;;;;7317627;19;20892;-47
2024/04/02 12:57:11;;;;;;;7.10;3.00;;;;;;;;;;7341090;19;20364;-42
2024/04/02 12:59:36;;;;;;;5.70;3.50;;;;;;;;;;7314129;19;20325;-47
2024/04/02 13:02:01;;;;;;;8.30;4.20;;;;;;;;;;7315074;19;20321;-45
2024/04/02 13:04:27;;;;;;;6.23;3.20;;;;;;;;;;7315623;19;20478;-43
2024/04/02 13:06:53;;;;;;;6.72;3.60;;;;;;;;;;7302768;19;20474;-47
2024/04/02 13:09:19;;;;;;;6.30;3.10;;;;;;;;;;7327368;19;20316;-43
2024/04/02 13:11:44;;;;;;;6.10;3.40;;;;;;;;;;7319936;19;20337;-42
2024/04/02 13:14:10;;;;;;;6.17;3.63;;;;;;;;;;7341440;19;20380;-46
2024/04/02 13:16:36;;;;;;;5.80;3.43;;;;;;;;;;7319609;19;20951;-47
2024/04/02 13:19:03;;;;;;;7.03;3.67;;;;;;;;;;7341315;19;20938;-45
2024/04/02 13:21:28;;;;;;;8.13;4.50;;;;;;;;;;7325589;19;20308;-43
2024/04/02 13:23:56;;;;;;;12.77;6.20;;;;;;;;;;7338894;19;20343;-44
2024/04/02 13:26:21;;;;;;;9.15;5.70;;;;;;;;;;7343318;19;20301;-42
2024/04/02 13:28:49;;;;;;;10.57;5.73;;;;;;;;;;7325135;19;20833;-41
2024/04/02 13:31:14;;;;;;;10.40;5.90;;;;;;;;;;7345980;19;20312;-46
2024/04/02 13:33:39;;;;;;;9.73;6.00;;;;;;;;;;7323742;19;20417;-43
2024/04/02 13:36:08;;;;;;;10.57;6.40;;;;;;;;;;7346014;19;21065;-44
2024/04/02 13:38:34;;;;;;;12.55;6.72;;;;;;;;;;7323596;19;20305;-42
2024/04/02 13:41:03;;;;;;;12.15;6.20;;;;;;;;;;7345954;19;20318;-41
2024/04/02 13:43:28;;;;;;;11.52;5.82;;;;;;;;;;7330835;19;20303;-44
2024/04/02 13:45:57;;;;;;;8.75;5.20;;;;;;;;;;7344643;19;20667;-41
2024/04/02 13:48:23;;;;;;;7.35;2.83;;;;;;;;;;7344245;19;20312;-43
2024/04/02 13:50:49;;;;;;;3.40;1.50;;;;;;;;;;7323540;19;21676;-46
2024/04/02 13:53:14;;;;;;;2.83;1.60;;;;;;;;;;7344712;19;20305;-44
2024/04/02 13:55:40;;;;;;;3.60;1.10;;;;;;;;;;7323205;19;20357;-41
2024/04/02 13:58:05;;;;;;;3.10;1.10;;;;;;;;;;7345406;19;20329;-42
2024/04/02 14:00:31;;;;;;;4.07;1.48;;;;;;;;;;7323016;19;20308;-47
2024/04/02 14:02:57;;;;;;;4.25;1.30;;;;;;;;;;7344720;19;20311;-44
2024/04/02 14:05:22;;;;;;;3.92;1.23;;;;;;;;;;7345052;19;20313;-44
2024/04/02 14:07:52;;;;;;;3.10;1.30;;;;;;;;;;7323856;19;20320;-41
2024/04/02 14:10:17;;;;;;;5.10;1.40;;;;;;;;;;7344843;19;20689;-46
2024/04/02 14:12:42;;;;;;;5.78;1.60;;;;;;;;;;7322624;19;20404;-47
2024/04/02 14:15:08;;;;;;;4.80;1.50;;;;;;;;;;7344001;19;20305;-41
2024/04/02 14:17:35;;;;;;;6.93;2.00;;;;;;;;;;7322159;19;20301;-44
2024/04/02 14:20:05;;;;;;;3.97;1.30;;;;;;;;;;7344628;19;20847;-41
2024/04/02 14:22:30;;;;;;;5.88;1.80;;;;;;;;;;7321845;19;20301;-41
2024/04/02 14:24:57;;;;;;;10.10;2.23;;;;;;;;;;7344283;19;20293;-47
2024/04/02 14:27:22;;;;;;;7.38;1.90;;;;;;;;;;7344347;19;20308;-43
2024/04/02 14:29:48;;;;;;;4.90;2.10;;;;;;;;;;7322366;19;20286;-44